Jenkins Bridge, Virginia
Current Conditions -  °F | °C
As of 3:36 PM on Monday 26 Jan 2015 (Local Time) from KWAL Reporting Station
Light Rain Light Rain  
Wind Chill: 38°   Ceiling: 1000
Heat Index: 45°   Visibility: 10mi
Dew Point: 41°   Wind: 16mph
Humidity: 86%   Direction: 30°NNE
Pressure: 29.56"   Gusts: 25mph
Location:  37.92°N, 75.63°W
Report Text: KWAL 262036Z 03014G22KT 10SM -RA BKN010 BKN028 BKN070 07/05 A2956 RMK AO2 RAB29 P0000 T00720050
Loading
Personal Weather Stations






























Interactive Weather Map New forecast layout! Learn more

10-Day Weather Forecast

Advertisements
Track Severe Weather on mobile